sensor_id;sensor_type;location;lat;lon;timestamp;P1;durP1;ratioP1;P2;durP2;ratioP2
13061;SDS011;6597;52.218;9.882;2022-07-01T00:01:35;5.88;;;3.90;;
13061;SDS011;6597;52.218;9.882;2022-07-01T00:04:01;5.43;;;4.28;;
13061;SDS011;6597;52.218;9.882;2022-07-01T00:06:28;5.18;;;4.10;;
13061;SDS011;6597;52.218;9.882;2022-07-01T00:08:55;5.63;;;4.00;;
13061;SDS011;6597;52.218;9.882;2022-07-01T00:11:21;7.43;;;4.18;;
13061;SDS011;6597;52.218;9.882;2022-07-01T00:13:48;7.43;;;4.20;;
13061;SDS011;6597;52.218;9.882;2022-07-01T00:16:16;8.52;;;4.53;;
13061;SDS011;6597;52.218;9.882;2022-07-01T00:18:43;8.85;;;4.45;;
13061;SDS011;6597;52.218;9.882;2022-07-01T00:21:09;5.90;;;4.10;;
13061;SDS011;6597;52.218;9.882;2022-07-01T00:23:37;4.35;;;3.75;;
13061;SDS011;6597;52.218;9.882;2022-07-01T00:26:04;6.53;;;4.32;;
13061;SDS011;6597;52.218;9.882;2022-07-01T00:28:30;7.03;;;4.25;;
13061;SDS011;6597;52.218;9.882;2022-07-01T00:30:57;5.75;;;4.32;;
13061;SDS011;6597;52.218;9.882;2022-07-01T00:33:25;5.47;;;4.55;;
13061;SDS011;6597;52.218;9.882;2022-07-01T00:35:51;7.78;;;4.68;;
13061;SDS011;6597;52.218;9.882;2022-07-01T00:38:18;5.90;;;4.50;;
13061;SDS011;6597;52.218;9.882;2022-07-01T00:40:47;7.22;;;5.13;;
13061;SDS011;6597;52.218;9.882;2022-07-01T00:43:17;10.88;;;5.68;;
13061;SDS011;6597;52.218;9.882;2022-07-01T00:45:44;9.23;;;6.18;;
13061;SDS011;6597;52.218;9.882;2022-07-01T00:48:13;6.22;;;5.25;;
13061;SDS011;6597;52.218;9.882;2022-07-01T00:50:42;8.90;;;6.10;;
13061;SDS011;6597;52.218;9.882;2022-07-01T00:53:08;11.13;;;6.25;;
13061;SDS011;6597;52.218;9.882;2022-07-01T00:55:35;8.00;;;5.82;;
13061;SDS011;6597;52.218;9.882;2022-07-01T00:58:01;8.13;;;6.28;;
13061;SDS011;6597;52.218;9.882;2022-07-01T01:00:28;6.93;;;5.53;;
13061;SDS011;6597;52.218;9.882;2022-07-01T01:02:55;10.00;;;6.45;;
13061;SDS011;6597;52.218;9.882;2022-07-01T01:05:21;7.03;;;6.03;;
13061;SDS011;6597;52.218;9.882;2022-07-01T01:07:51;7.28;;;5.53;;
13061;SDS011;6597;52.218;9.882;2022-07-01T01:10:18;8.73;;;5.88;;
13061;SDS011;6597;52.218;9.882;2022-07-01T01:12:45;6.72;;;5.55;;
13061;SDS011;6597;52.218;9.882;2022-07-01T01:15:17;11.65;;;5.20;;
13061;SDS011;6597;52.218;9.882;2022-07-01T01:17:44;6.72;;;4.85;;
13061;SDS011;6597;52.218;9.882;2022-07-01T01:20:14;7.43;;;5.50;;
13061;SDS011;6597;52.218;9.882;2022-07-01T01:22:42;7.13;;;5.53;;
13061;SDS011;6597;52.218;9.882;2022-07-01T01:25:09;7.53;;;5.65;;
13061;SDS011;6597;52.218;9.882;2022-07-01T01:27:36;7.05;;;5.13;;
13061;SDS011;6597;52.218;9.882;2022-07-01T01:30:03;7.68;;;5.38;;
13061;SDS011;6597;52.218;9.882;2022-07-01T01:32:31;7.75;;;5.95;;
13061;SDS011;6597;52.218;9.882;2022-07-01T01:34:57;7.20;;;5.55;;
13061;SDS011;6597;52.218;9.882;2022-07-01T01:37:24;8.20;;;6.40;;
13061;SDS011;6597;52.218;9.882;2022-07-01T01:39:53;10.15;;;6.05;;
13061;SDS011;6597;52.218;9.882;2022-07-01T01:42:20;8.77;;;6.10;;
13061;SDS011;6597;52.218;9.882;2022-07-01T01:44:48;8.52;;;5.57;;
13061;SDS011;6597;52.218;9.882;2022-07-01T01:47:14;6.13;;;5.25;;
13061;SDS011;6597;52.218;9.882;2022-07-01T01:49:41;14.38;;;5.75;;
13061;SDS011;6597;52.218;9.882;2022-07-01T01:52:08;8.48;;;5.40;;
13061;SDS011;6597;52.218;9.882;2022-07-01T01:54:34;12.15;;;5.80;;
13061;SDS011;6597;52.218;9.882;2022-07-01T01:57:03;6.45;;;4.70;;
13061;SDS011;6597;52.218;9.882;2022-07-01T01:59:30;5.18;;;3.60;;
13061;SDS011;6597;52.218;9.882;2022-07-01T02:01:57;3.72;;;3.03;;
13061;SDS011;6597;52.218;9.882;2022-07-01T02:04:23;4.10;;;3.15;;
13061;SDS011;6597;52.218;9.882;2022-07-01T02:06:50;5.28;;;2.90;;
13061;SDS011;6597;52.218;9.882;2022-07-01T02:09:18;4.38;;;3.30;;
13061;SDS011;6597;52.218;9.882;2022-07-01T02:11:44;4.30;;;3.03;;
13061;SDS011;6597;52.218;9.882;2022-07-01T02:14:12;4.22;;;2.35;;
13061;SDS011;6597;52.218;9.882;2022-07-01T02:16:39;2.75;;;2.20;;
13061;SDS011;6597;52.218;9.882;2022-07-01T02:19:05;5.00;;;2.38;;
13061;SDS011;6597;52.218;9.882;2022-07-01T02:21:32;2.27;;;2.03;;
13061;SDS011;6597;52.218;9.882;2022-07-01T02:23:59;2.75;;;2.30;;
13061;SDS011;6597;52.218;9.882;2022-07-01T02:26:25;2.33;;;1.93;;
13061;SDS011;6597;52.218;9.882;2022-07-01T02:28:52;2.10;;;1.83;;
13061;SDS011;6597;52.218;9.882;2022-07-01T02:31:20;1.73;;;1.23;;
13061;SDS011;6597;52.218;9.882;2022-07-01T02:33:47;1.27;;;0.87;;
13061;SDS011;6597;52.218;9.882;2022-07-01T02:36:14;1.07;;;0.93;;
13061;SDS011;6597;52.218;9.882;2022-07-01T02:38:41;1.05;;;0.95;;
13061;SDS011;6597;52.218;9.882;2022-07-01T02:41:07;0.98;;;0.80;;
13061;SDS011;6597;52.218;9.882;2022-07-01T02:43:35;0.93;;;0.77;;
13061;SDS011;6597;52.218;9.882;2022-07-01T02:46:01;0.67;;;0.67;;
13061;SDS011;6597;52.218;9.882;2022-07-01T02:48:29;1.87;;;0.80;;
13061;SDS011;6597;52.218;9.882;2022-07-01T02:50:56;1.20;;;1.00;;
13061;SDS011;6597;52.218;9.882;2022-07-01T02:53:23;1.30;;;0.87;;
13061;SDS011;6597;52.218;9.882;2022-07-01T02:55:49;1.10;;;1.00;;
13061;SDS011;6597;52.218;9.882;2022-07-01T02:58:16;1.37;;;1.10;;
13061;SDS011;6597;52.218;9.882;2022-07-01T03:00:43;1.30;;;1.03;;
13061;SDS011;6597;52.218;9.882;2022-07-01T03:03:09;1.70;;;1.40;;
13061;SDS011;6597;52.218;9.882;2022-07-01T03:05:37;1.43;;;1.33;;
13061;SDS011;6597;52.218;9.882;2022-07-01T03:08:04;2.37;;;1.80;;
13061;SDS011;6597;52.218;9.882;2022-07-01T03:10:31;2.83;;;1.47;;
13061;SDS011;6597;52.218;9.882;2022-07-01T03:12:57;2.67;;;1.97;;
13061;SDS011;6597;52.218;9.882;2022-07-01T03:15:27;4.00;;;2.00;;
13061;SDS011;6597;52.218;9.882;2022-07-01T03:17:53;1.77;;;1.63;;
13061;SDS011;6597;52.218;9.882;2022-07-01T03:20:20;2.50;;;1.60;;
13061;SDS011;6597;52.218;9.882;2022-07-01T03:22:48;3.20;;;1.70;;
13061;SDS011;6597;52.218;9.882;2022-07-01T03:25:15;1.73;;;1.53;;
13061;SDS011;6597;52.218;9.882;2022-07-01T03:27:42;2.20;;;1.83;;
13061;SDS011;6597;52.218;9.882;2022-07-01T03:30:13;3.37;;;1.80;;
13061;SDS011;6597;52.218;9.882;2022-07-01T03:32:40;2.10;;;1.63;;
13061;SDS011;6597;52.218;9.882;2022-07-01T03:35:07;2.40;;;1.80;;
13061;SDS011;6597;52.218;9.882;2022-07-01T03:37:49;2.87;;;1.90;;
13061;SDS011;6597;52.218;9.882;2022-07-01T03:40:16;3.20;;;1.57;;
13061;SDS011;6597;52.218;9.882;2022-07-01T03:42:43;2.23;;;1.67;;
13061;SDS011;6597;52.218;9.882;2022-07-01T03:45:10;2.10;;;1.37;;
13061;SDS011;6597;52.218;9.882;2022-07-01T03:47:36;2.27;;;1.30;;
13061;SDS011;6597;52.218;9.882;2022-07-01T03:50:03;1.90;;;1.23;;
13061;SDS011;6597;52.218;9.882;2022-07-01T03:52:30;3.13;;;1.57;;
13061;SDS011;6597;52.218;9.882;2022-07-01T03:54:58;1.67;;;1.40;;
13061;SDS011;6597;52.218;9.882;2022-07-01T03:57:24;2.63;;;1.50;;
13061;SDS011;6597;52.218;9.882;2022-07-01T03:59:50;2.83;;;1.37;;
13061;SDS011;6597;52.218;9.882;2022-07-01T04:02:17;3.03;;;1.40;;
13061;SDS011;6597;52.218;9.882;2022-07-01T04:04:43;2.50;;;1.70;;
13061;SDS011;6597;52.218;9.882;2022-07-01T04:07:10;4.50;;;2.00;;
13061;SDS011;6597;52.218;9.882;2022-07-01T04:09:37;3.03;;;1.70;;
13061;SDS011;6597;52.218;9.882;2022-07-01T04:12:05;1.73;;;1.40;;
13061;SDS011;6597;52.218;9.882;2022-07-01T04:14:33;1.40;;;1.30;;
13061;SDS011;6597;52.218;9.882;2022-07-01T04:17:00;2.63;;;1.57;;
13061;SDS011;6597;52.218;9.882;2022-07-01T04:19:26;2.40;;;1.40;;
13061;SDS011;6597;52.218;9.882;2022-07-01T04:21:53;1.70;;;1.40;;
13061;SDS011;6597;52.218;9.882;2022-07-01T04:24:37;3.83;;;1.30;;
13061;SDS011;6597;52.218;9.882;2022-07-01T04:27:05;1.43;;;1.30;;
13061;SDS011;6597;52.218;9.882;2022-07-01T04:29:32;1.43;;;1.20;;
13061;SDS011;6597;52.218;9.882;2022-07-01T04:31:59;1.80;;;1.33;;
13061;SDS011;6597;52.218;9.882;2022-07-01T04:34:25;4.87;;;1.53;;
13061;SDS011;6597;52.218;9.882;2022-07-01T04:36:52;4.23;;;1.37;;
13061;SDS011;6597;52.218;9.882;2022-07-01T04:39:18;1.23;;;1.03;;
13061;SDS011;6597;52.218;9.882;2022-07-01T04:41:45;1.30;;;1.20;;
13061;SDS011;6597;52.218;9.882;2022-07-01T04:44:28;1.20;;;1.10;;
13061;SDS011;6597;52.218;9.882;2022-07-01T04:49:26;1.63;;;1.20;;
13061;SDS011;6597;52.218;9.882;2022-07-01T04:51:53;5.07;;;1.20;;
13061;SDS011;6597;52.218;9.882;2022-07-01T04:54:19;1.03;;;1.03;;
13061;SDS011;6597;52.218;9.882;2022-07-01T04:56:47;1.90;;;1.33;;
13061;SDS011;6597;52.218;9.882;2022-07-01T04:59:14;1.83;;;1.60;;
13061;SDS011;6597;52.218;9.882;2022-07-01T05:01:43;2.00;;;1.63;;
13061;SDS011;6597;52.218;9.882;2022-07-01T05:04:10;1.63;;;1.53;;
13061;SDS011;6597;52.218;9.882;2022-07-01T05:06:38;2.37;;;1.63;;
13061;SDS011;6597;52.218;9.882;2022-07-01T05:09:04;1.93;;;1.73;;
13061;SDS011;6597;52.218;9.882;2022-07-01T05:11:31;2.80;;;1.77;;
13061;SDS011;6597;52.218;9.882;2022-07-01T05:13:58;1.50;;;1.40;;
13061;SDS011;6597;52.218;9.882;2022-07-01T05:16:24;1.80;;;1.67;;
13061;SDS011;6597;52.218;9.882;2022-07-01T05:18:52;2.10;;;1.40;;
13061;SDS011;6597;52.218;9.882;2022-07-01T05:21:37;3.30;;;1.23;;
13061;SDS011;6597;52.218;9.882;2022-07-01T05:24:22;4.63;;;1.50;;
13061;SDS011;6597;52.218;9.882;2022-07-01T05:26:49;2.43;;;1.70;;
13061;SDS011;6597;52.218;9.882;2022-07-01T05:29:15;1.97;;;1.77;;
13061;SDS011;6597;52.218;9.882;2022-07-01T05:31:42;2.83;;;2.07;;
13061;SDS011;6597;52.218;9.882;2022-07-01T05:34:10;3.47;;;2.00;;
13061;SDS011;6597;52.218;9.882;2022-07-01T05:36:37;2.53;;;1.97;;
13061;SDS011;6597;52.218;9.882;2022-07-01T05:39:05;2.07;;;1.73;;
13061;SDS011;6597;52.218;9.882;2022-07-01T05:41:31;2.03;;;1.80;;
13061;SDS011;6597;52.218;9.882;2022-07-01T05:43:59;3.03;;;2.10;;
13061;SDS011;6597;52.218;9.882;2022-07-01T05:46:26;3.10;;;1.97;;
13061;SDS011;6597;52.218;9.882;2022-07-01T05:48:53;2.67;;;2.10;;
13061;SDS011;6597;52.218;9.882;2022-07-01T05:51:20;2.60;;;2.03;;
13061;SDS011;6597;52.218;9.882;2022-07-01T05:53:47;4.07;;;2.20;;
13061;SDS011;6597;52.218;9.882;2022-07-01T05:56:14;2.63;;;2.10;;
13061;SDS011;6597;52.218;9.882;2022-07-01T05:58:40;2.70;;;1.80;;
13061;SDS011;6597;52.218;9.882;2022-07-01T06:01:07;5.77;;;1.90;;
13061;SDS011;6597;52.218;9.882;2022-07-01T06:03:34;2.83;;;2.13;;
13061;SDS011;6597;52.218;9.882;2022-07-01T06:06:00;3.33;;;2.30;;
13061;SDS011;6597;52.218;9.882;2022-07-01T06:08:28;3.43;;;2.17;;
13061;SDS011;6597;52.218;9.882;2022-07-01T06:10:55;3.27;;;2.10;;
13061;SDS011;6597;52.218;9.882;2022-07-01T06:13:22;3.27;;;1.93;;
13061;SDS011;6597;52.218;9.882;2022-07-01T06:15:48;2.50;;;1.90;;
13061;SDS011;6597;52.218;9.882;2022-07-01T06:18:15;2.87;;;2.33;;
13061;SDS011;6597;52.218;9.882;2022-07-01T06:20:42;2.93;;;2.23;;
13061;SDS011;6597;52.218;9.882;2022-07-01T06:23:08;3.33;;;2.70;;
13061;SDS011;6597;52.218;9.882;2022-07-01T06:25:36;7.97;;;2.50;;
13061;SDS011;6597;52.218;9.882;2022-07-01T06:28:03;8.90;;;3.00;;
13061;SDS011;6597;52.218;9.882;2022-07-01T06:30:30;2.97;;;2.53;;
13061;SDS011;6597;52.218;9.882;2022-07-01T06:32:56;5.13;;;2.80;;
13061;SDS011;6597;52.218;9.882;2022-07-01T06:35:23;4.27;;;2.90;;
13061;SDS011;6597;52.218;9.882;2022-07-01T06:37:50;2.63;;;2.00;;
13061;SDS011;6597;52.218;9.882;2022-07-01T06:40:17;5.40;;;2.60;;
13061;SDS011;6597;52.218;9.882;2022-07-01T06:42:45;4.93;;;2.80;;
13061;SDS011;6597;52.218;9.882;2022-07-01T06:45:12;5.37;;;2.40;;
13061;SDS011;6597;52.218;9.882;2022-07-01T06:47:39;3.03;;;2.63;;
13061;SDS011;6597;52.218;9.882;2022-07-01T06:50:06;4.03;;;3.20;;
13061;SDS011;6597;52.218;9.882;2022-07-01T06:52:33;3.33;;;2.70;;
13061;SDS011;6597;52.218;9.882;2022-07-01T06:54:59;4.10;;;2.80;;
13061;SDS011;6597;52.218;9.882;2022-07-01T06:57:27;4.03;;;2.97;;
13061;SDS011;6597;52.218;9.882;2022-07-01T06:59:55;6.00;;;3.20;;
13061;SDS011;6597;52.218;9.882;2022-07-01T07:02:22;4.03;;;2.83;;
13061;SDS011;6597;52.218;9.882;2022-07-01T07:04:48;5.00;;;3.20;;
13061;SDS011;6597;52.218;9.882;2022-07-01T07:07:15;4.23;;;2.90;;
13061;SDS011;6597;52.218;9.882;2022-07-01T07:09:42;5.20;;;2.70;;
13061;SDS011;6597;52.218;9.882;2022-07-01T07:12:09;3.63;;;2.80;;
13061;SDS011;6597;52.218;9.882;2022-07-01T07:14:36;5.27;;;3.20;;
13061;SDS011;6597;52.218;9.882;2022-07-01T07:17:04;9.47;;;3.33;;
13061;SDS011;6597;52.218;9.882;2022-07-01T07:19:30;4.77;;;3.33;;
13061;SDS011;6597;52.218;9.882;2022-07-01T07:21:57;3.90;;;3.27;;
13061;SDS011;6597;52.218;9.882;2022-07-01T07:24:23;5.03;;;3.40;;
13061;SDS011;6597;52.218;9.882;2022-07-01T07:26:50;4.13;;;3.27;;
13061;SDS011;6597;52.218;9.882;2022-07-01T07:29:16;5.40;;;3.97;;
13061;SDS011;6597;52.218;9.882;2022-07-01T07:31:43;5.10;;;3.70;;
13061;SDS011;6597;52.218;9.882;2022-07-01T07:34:11;6.50;;;3.90;;
13061;SDS011;6597;52.218;9.882;2022-07-01T07:36:37;4.50;;;3.70;;
13061;SDS011;6597;52.218;9.882;2022-07-01T07:39:04;6.00;;;4.00;;
13061;SDS011;6597;52.218;9.882;2022-07-01T07:41:31;5.17;;;3.87;;
13061;SDS011;6597;52.218;9.882;2022-07-01T07:44:00;5.67;;;3.93;;
13061;SDS011;6597;52.218;9.882;2022-07-01T07:46:27;6.50;;;4.13;;
13061;SDS011;6597;52.218;9.882;2022-07-01T07:48:53;5.80;;;4.60;;
13061;SDS011;6597;52.218;9.882;2022-07-01T07:51:21;7.40;;;4.80;;
13061;SDS011;6597;52.218;9.882;2022-07-01T07:53:49;5.53;;;4.07;;
13061;SDS011;6597;52.218;9.882;2022-07-01T07:56:16;10.33;;;4.17;;
13061;SDS011;6597;52.218;9.882;2022-07-01T07:58:43;8.13;;;4.70;;
13061;SDS011;6597;52.218;9.882;2022-07-01T08:01:09;6.77;;;4.47;;
13061;SDS011;6597;52.218;9.882;2022-07-01T08:03:36;7.03;;;4.90;;
13061;SDS011;6597;52.218;9.882;2022-07-01T08:06:03;9.60;;;5.20;;
13061;SDS011;6597;52.218;9.882;2022-07-01T08:08:31;5.90;;;4.57;;
13061;SDS011;6597;52.218;9.882;2022-07-01T08:10:58;7.43;;;5.00;;
13061;SDS011;6597;52.218;9.882;2022-07-01T08:13:25;7.37;;;4.80;;
13061;SDS011;6597;52.218;9.882;2022-07-01T08:15:52;6.60;;;4.93;;
13061;SDS011;6597;52.218;9.882;2022-07-01T08:18:19;6.00;;;4.67;;
13061;SDS011;6597;52.218;9.882;2022-07-01T08:20:45;6.60;;;4.27;;
13061;SDS011;6597;52.218;9.882;2022-07-01T08:23:12;5.87;;;3.30;;
13061;SDS011;6597;52.218;9.882;2022-07-01T08:25:40;6.03;;;3.23;;
13061;SDS011;6597;52.218;9.882;2022-07-01T08:28:06;3.43;;;2.50;;
13061;SDS011;6597;52.218;9.882;2022-07-01T08:30:33;3.57;;;2.30;;
13061;SDS011;6597;52.218;9.882;2022-07-01T08:33:00;2.50;;;2.03;;
13061;SDS011;6597;52.218;9.882;2022-07-01T08:35:27;2.60;;;2.00;;
13061;SDS011;6597;52.218;9.882;2022-07-01T08:37:54;2.90;;;1.90;;
13061;SDS011;6597;52.218;9.882;2022-07-01T08:40:23;2.23;;;1.80;;
13061;SDS011;6597;52.218;9.882;2022-07-01T08:42:52;2.77;;;1.90;;
13061;SDS011;6597;52.218;9.882;2022-07-01T08:45:21;1.90;;;1.80;;
13061;SDS011;6597;52.218;9.882;2022-07-01T08:47:49;1.63;;;1.43;;
13061;SDS011;6597;52.218;9.882;2022-07-01T08:50:17;4.10;;;1.60;;
13061;SDS011;6597;52.218;9.882;2022-07-01T08:52:44;1.83;;;1.57;;
13061;SDS011;6597;52.218;9.882;2022-07-01T08:55:10;2.43;;;1.83;;
13061;SDS011;6597;52.218;9.882;2022-07-01T08:57:37;2.50;;;2.07;;
13061;SDS011;6597;52.218;9.882;2022-07-01T09:00:06;3.33;;;2.23;;
13061;SDS011;6597;52.218;9.882;2022-07-01T09:02:50;2.40;;;2.20;;
13061;SDS011;6597;52.218;9.882;2022-07-01T09:05:22;3.87;;;2.57;;
13061;SDS011;6597;52.218;9.882;2022-07-01T09:07:54;5.53;;;2.90;;
13061;SDS011;6597;52.218;9.882;2022-07-01T09:10:22;3.47;;;2.43;;
13061;SDS011;6597;52.218;9.882;2022-07-01T09:12:49;3.10;;;2.63;;
13061;SDS011;6597;52.218;9.882;2022-07-01T09:15:25;4.17;;;3.07;;
13061;SDS011;6597;52.218;9.882;2022-07-01T09:17:53;5.30;;;3.03;;
13061;SDS011;6597;52.218;9.882;2022-07-01T09:20:25;4.27;;;2.77;;
13061;SDS011;6597;52.218;9.882;2022-07-01T09:23:01;4.00;;;3.10;;
13061;SDS011;6597;52.218;9.882;2022-07-01T09:25:30;4.20;;;3.17;;
13061;SDS011;6597;52.218;9.882;2022-07-01T09:28:08;5.50;;;4.10;;
13061;SDS011;6597;52.218;9.882;2022-07-01T09:30:40;4.63;;;3.80;;
13061;SDS011;6597;52.218;9.882;2022-07-01T09:33:09;4.97;;;3.80;;
13061;SDS011;6597;52.218;9.882;2022-07-01T09:35:38;5.17;;;3.87;;
13061;SDS011;6597;52.218;9.882;2022-07-01T09:38:05;4.70;;;3.60;;
13061;SDS011;6597;52.218;9.882;2022-07-01T09:40:46;5.87;;;3.73;;
13061;SDS011;6597;52.218;9.882;2022-07-01T09:43:15;5.73;;;3.80;;
13061;SDS011;6597;52.218;9.882;2022-07-01T09:45:53;6.17;;;4.07;;
13061;SDS011;6597;52.218;9.882;2022-07-01T09:48:22;6.30;;;3.80;;
13061;SDS011;6597;52.218;9.882;2022-07-01T09:50:50;4.83;;;4.00;;
13061;SDS011;6597;52.218;9.882;2022-07-01T09:53:17;7.33;;;4.20;;
13061;SDS011;6597;52.218;9.882;2022-07-01T09:55:44;5.60;;;3.83;;
13061;SDS011;6597;52.218;9.882;2022-07-01T09:58:10;7.35;;;4.18;;
13061;SDS011;6597;52.218;9.882;2022-07-01T10:00:37;5.00;;;4.03;;
13061;SDS011;6597;52.218;9.882;2022-07-01T10:03:05;5.30;;;4.05;;
13061;SDS011;6597;52.218;9.882;2022-07-01T10:05:35;6.43;;;4.60;;
13061;SDS011;6597;52.218;9.882;2022-07-01T10:08:10;5.60;;;4.40;;
13061;SDS011;6597;52.218;9.882;2022-07-01T10:11:16;6.28;;;4.45;;
13061;SDS011;6597;52.218;9.882;2022-07-01T10:14:00;7.45;;;5.00;;
13061;SDS011;6597;52.218;9.882;2022-07-01T10:16:30;6.45;;;4.75;;
13061;SDS011;6597;52.218;9.882;2022-07-01T10:18:59;6.72;;;4.53;;
13061;SDS011;6597;52.218;9.882;2022-07-01T10:21:51;8.35;;;4.28;;
13061;SDS011;6597;52.218;9.882;2022-07-01T10:24:19;8.05;;;4.95;;
13061;SDS011;6597;52.218;9.882;2022-07-01T10:26:46;9.20;;;5.13;;
13061;SDS011;6597;52.218;9.882;2022-07-01T10:29:29;9.68;;;4.43;;
13061;SDS011;6597;52.218;9.882;2022-07-01T10:32:00;10.70;;;5.15;;
13061;SDS011;6597;52.218;9.882;2022-07-01T10:34:36;7.68;;;5.22;;
13061;SDS011;6597;52.218;9.882;2022-07-01T10:37:06;5.53;;;4.38;;
13061;SDS011;6597;52.218;9.882;2022-07-01T10:39:54;8.80;;;5.32;;
13061;SDS011;6597;52.218;9.882;2022-07-01T10:42:21;9.25;;;5.55;;
13061;SDS011;6597;52.218;9.882;2022-07-01T10:45:00;7.38;;;5.00;;
13061;SDS011;6597;52.218;9.882;2022-07-01T10:47:28;6.57;;;5.10;;
13061;SDS011;6597;52.218;9.882;2022-07-01T10:49:57;6.15;;;4.88;;
13061;SDS011;6597;52.218;9.882;2022-07-01T10:52:25;9.43;;;5.97;;
13061;SDS011;6597;52.218;9.882;2022-07-01T10:54:53;8.17;;;5.67;;
13061;SDS011;6597;52.218;9.882;2022-07-01T10:57:21;10.13;;;6.28;;
13061;SDS011;6597;52.218;9.882;2022-07-01T11:02:55;10.70;;;5.65;;
13061;SDS011;6597;52.218;9.882;2022-07-01T11:05:23;8.15;;;5.43;;
13061;SDS011;6597;52.218;9.882;2022-07-01T11:07:50;10.52;;;5.40;;
13061;SDS011;6597;52.218;9.882;2022-07-01T11:10:16;9.85;;;5.40;;
13061;SDS011;6597;52.218;9.882;2022-07-01T11:12:45;8.75;;;5.75;;
13061;SDS011;6597;52.218;9.882;2022-07-01T11:15:14;13.98;;;6.07;;
13061;SDS011;6597;52.218;9.882;2022-07-01T11:17:42;6.40;;;4.65;;
13061;SDS011;6597;52.218;9.882;2022-07-01T11:20:10;7.78;;;5.22;;
13061;SDS011;6597;52.218;9.882;2022-07-01T11:22:39;9.30;;;6.03;;
13061;SDS011;6597;52.218;9.882;2022-07-01T11:25:07;9.98;;;5.03;;
13061;SDS011;6597;52.218;9.882;2022-07-01T11:27:35;7.75;;;4.85;;
13061;SDS011;6597;52.218;9.882;2022-07-01T11:30:05;7.07;;;4.32;;
13061;SDS011;6597;52.218;9.882;2022-07-01T11:32:34;7.43;;;4.93;;
13061;SDS011;6597;52.218;9.882;2022-07-01T11:35:02;6.05;;;4.47;;
13061;SDS011;6597;52.218;9.882;2022-07-01T11:37:53;6.63;;;4.53;;
13061;SDS011;6597;52.218;9.882;2022-07-01T11:40:48;5.55;;;4.32;;
13061;SDS011;6597;52.218;9.882;2022-07-01T11:43:18;6.80;;;4.70;;
13061;SDS011;6597;52.218;9.882;2022-07-01T11:45:45;6.32;;;4.18;;
13061;SDS011;6597;52.218;9.882;2022-07-01T11:48:13;6.13;;;4.35;;
13061;SDS011;6597;52.218;9.882;2022-07-01T11:50:54;4.13;;;3.72;;
13061;SDS011;6597;52.218;9.882;2022-07-01T11:53:23;4.90;;;3.63;;
13061;SDS011;6597;52.218;9.882;2022-07-01T11:55:50;5.05;;;3.33;;
13061;SDS011;6597;52.218;9.882;2022-07-01T11:58:16;5.43;;;3.63;;
13061;SDS011;6597;52.218;9.882;2022-07-01T12:00:43;5.82;;;3.72;;
13061;SDS011;6597;52.218;9.882;2022-07-01T12:03:10;4.53;;;3.75;;
13061;SDS011;6597;52.218;9.882;2022-07-01T12:05:37;5.32;;;3.00;;
13061;SDS011;6597;52.218;9.882;2022-07-01T12:08:04;3.78;;;3.13;;
13061;SDS011;6597;52.218;9.882;2022-07-01T12:10:32;4.53;;;3.72;;
13061;SDS011;6597;52.218;9.882;2022-07-01T12:12:59;6.50;;;3.67;;
13061;SDS011;6597;52.218;9.882;2022-07-01T12:15:26;3.47;;;2.72;;
13061;SDS011;6597;52.218;9.882;2022-07-01T12:18:04;4.78;;;3.05;;
13061;SDS011;6597;52.218;9.882;2022-07-01T12:20:31;5.72;;;3.22;;
13061;SDS011;6597;52.218;9.882;2022-07-01T12:23:10;4.40;;;3.30;;
13061;SDS011;6597;52.218;9.882;2022-07-01T12:25:38;5.38;;;3.45;;
13061;SDS011;6597;52.218;9.882;2022-07-01T12:28:05;4.80;;;3.45;;
13061;SDS011;6597;52.218;9.882;2022-07-01T12:30:32;4.57;;;3.35;;
13061;SDS011;6597;52.218;9.882;2022-07-01T12:33:07;4.07;;;2.83;;
13061;SDS011;6597;52.218;9.882;2022-07-01T12:35:35;4.15;;;2.80;;
13061;SDS011;6597;52.218;9.882;2022-07-01T12:38:14;4.25;;;2.80;;
13061;SDS011;6597;52.218;9.882;2022-07-01T12:40:43;4.88;;;3.35;;
13061;SDS011;6597;52.218;9.882;2022-07-01T12:43:21;3.38;;;2.92;;
13061;SDS011;6597;52.218;9.882;2022-07-01T12:45:49;4.25;;;3.17;;
13061;SDS011;6597;52.218;9.882;2022-07-01T12:48:15;9.68;;;3.30;;
13061;SDS011;6597;52.218;9.882;2022-07-01T12:50:42;4.88;;;3.40;;
13061;SDS011;6597;52.218;9.882;2022-07-01T12:53:12;4.88;;;3.42;;
13061;SDS011;6597;52.218;9.882;2022-07-01T12:55:46;4.65;;;3.30;;
13061;SDS011;6597;52.218;9.882;2022-07-01T12:58:14;5.50;;;3.42;;
13061;SDS011;6597;52.218;9.882;2022-07-01T13:00:43;3.83;;;3.08;;
13061;SDS011;6597;52.218;9.882;2022-07-01T13:03:12;3.88;;;2.97;;
13061;SDS011;6597;52.218;9.882;2022-07-01T13:05:40;5.18;;;3.60;;
13061;SDS011;6597;52.218;9.882;2022-07-01T13:08:07;6.55;;;2.60;;
13061;SDS011;6597;52.218;9.882;2022-07-01T13:10:35;4.90;;;2.80;;
13061;SDS011;6597;52.218;9.882;2022-07-01T13:13:03;3.30;;;2.70;;
13061;SDS011;6597;52.218;9.882;2022-07-01T13:15:31;5.22;;;2.75;;
13061;SDS011;6597;52.218;9.882;2022-07-01T13:17:58;3.58;;;2.50;;
13061;SDS011;6597;52.218;9.882;2022-07-01T13:20:24;3.85;;;2.80;;
13061;SDS011;6597;52.218;9.882;2022-07-01T13:22:51;3.88;;;2.75;;
13061;SDS011;6597;52.218;9.882;2022-07-01T13:25:18;3.97;;;3.10;;
13061;SDS011;6597;52.218;9.882;2022-07-01T13:27:45;4.00;;;2.80;;
13061;SDS011;6597;52.218;9.882;2022-07-01T13:30:14;3.83;;;2.60;;
13061;SDS011;6597;52.218;9.882;2022-07-01T13:32:41;4.35;;;2.88;;
13061;SDS011;6597;52.218;9.882;2022-07-01T13:35:08;2.97;;;2.70;;
13061;SDS011;6597;52.218;9.882;2022-07-01T13:37:38;3.70;;;2.67;;
13061;SDS011;6597;52.218;9.882;2022-07-01T13:40:06;4.93;;;3.15;;
13061;SDS011;6597;52.218;9.882;2022-07-01T13:42:33;3.47;;;2.85;;
13061;SDS011;6597;52.218;9.882;2022-07-01T13:45:00;3.60;;;2.85;;
13061;SDS011;6597;52.218;9.882;2022-07-01T13:47:28;7.10;;;2.58;;
13061;SDS011;6597;52.218;9.882;2022-07-01T13:49:55;4.50;;;2.60;;
13061;SDS011;6597;52.218;9.882;2022-07-01T13:52:21;9.27;;;2.30;;
13061;SDS011;6597;52.218;9.882;2022-07-01T13:54:48;4.47;;;2.35;;
13061;SDS011;6597;52.218;9.882;2022-07-01T13:57:16;5.05;;;3.20;;
13061;SDS011;6597;52.218;9.882;2022-07-01T13:59:42;2.35;;;2.15;;
13061;SDS011;6597;52.218;9.882;2022-07-01T14:02:09;4.88;;;2.60;;
13061;SDS011;6597;52.218;9.882;2022-07-01T14:04:37;4.95;;;3.25;;
13061;SDS011;6597;52.218;9.882;2022-07-01T14:07:04;6.93;;;3.10;;
13061;SDS011;6597;52.218;9.882;2022-07-01T14:09:31;5.00;;;2.42;;
13061;SDS011;6597;52.218;9.882;2022-07-01T14:11:58;8.30;;;2.85;;
13061;SDS011;6597;52.218;9.882;2022-07-01T14:14:24;6.40;;;2.90;;
13061;SDS011;6597;52.218;9.882;2022-07-01T14:16:51;3.17;;;2.50;;
13061;SDS011;6597;52.218;9.882;2022-07-01T14:19:18;6.55;;;2.80;;
13061;SDS011;6597;52.218;9.882;2022-07-01T14:21:46;6.88;;;2.58;;
13061;SDS011;6597;52.218;9.882;2022-07-01T14:24:12;2.55;;;2.33;;
13061;SDS011;6597;52.218;9.882;2022-07-01T14:26:39;3.13;;;2.50;;
13061;SDS011;6597;52.218;9.882;2022-07-01T14:29:05;3.92;;;2.78;;
13061;SDS011;6597;52.218;9.882;2022-07-01T14:31:32;6.55;;;2.72;;
13061;SDS011;6597;52.218;9.882;2022-07-01T14:33:59;3.90;;;2.70;;
13061;SDS011;6597;52.218;9.882;2022-07-01T14:36:25;2.88;;;2.40;;
13061;SDS011;6597;52.218;9.882;2022-07-01T14:38:53;3.75;;;2.72;;
13061;SDS011;6597;52.218;9.882;2022-07-01T14:41:20;7.10;;;2.50;;
13061;SDS011;6597;52.218;9.882;2022-07-01T14:43:47;4.88;;;2.22;;
13061;SDS011;6597;52.218;9.882;2022-07-01T14:46:13;3.90;;;2.35;;
13061;SDS011;6597;52.218;9.882;2022-07-01T14:48:41;1.42;;;1.27;;
13061;SDS011;6597;52.218;9.882;2022-07-01T14:51:07;2.90;;;1.88;;
13061;SDS011;6597;52.218;9.882;2022-07-01T14:53:35;1.65;;;1.50;;
13061;SDS011;6597;52.218;9.882;2022-07-01T14:56:03;2.33;;;1.70;;
13061;SDS011;6597;52.218;9.882;2022-07-01T14:58:30;2.53;;;1.67;;
13061;SDS011;6597;52.218;9.882;2022-07-01T15:00:56;3.40;;;2.08;;
13061;SDS011;6597;52.218;9.882;2022-07-01T15:03:23;2.78;;;1.90;;
13061;SDS011;6597;52.218;9.882;2022-07-01T15:05:50;4.68;;;1.90;;
13061;SDS011;6597;52.218;9.882;2022-07-01T15:08:17;2.20;;;1.77;;
13061;SDS011;6597;52.218;9.882;2022-07-01T15:10:44;2.60;;;1.90;;
13061;SDS011;6597;52.218;9.882;2022-07-01T15:13:13;2.90;;;1.92;;